Time;durP1;ratioP1;P1;durP2;ratioP2;P2;SDS_P1;SDS_P2;PMS_P1;PMS_P2;Temp;Humidity;BMP_temperature;BMP_pressure;BME280_temperature;BME280_humidity;BME280_pressure;Samples;Min_cycle;Max_cycle;Signal;HPM_P1;HPM_P2
2024/01/24 00:02:15;;;;;;;16.10;3.77;;;4.80;99.90;;;;;;5043699;28;20493;-58
2024/01/24 00:04:41;;;;;;;5.93;2.80;;;4.80;99.90;;;;;;5047447;28;20492;-59
2024/01/24 00:07:09;;;;;;;10.60;3.30;;;4.90;99.90;;;;;;5042172;28;20459;-58
2024/01/24 00:09:36;;;;;;;11.47;3.17;;;4.90;99.90;;;;;;5040009;28;20556;-59
2024/01/24 00:12:03;;;;;;;11.00;3.83;;;4.80;99.90;;;;;;5033886;28;20436;-59
2024/01/24 00:14:30;;;;;;;6.50;3.07;;;4.90;99.90;;;;;;5029739;28;20569;-58
2024/01/24 00:16:57;;;;;;;6.10;2.70;;;4.90;99.90;;;;;;5029856;28;20458;-58
2024/01/24 00:19:23;;;;;;;6.53;2.83;;;4.90;99.90;;;;;;5035403;28;20494;-59
2024/01/24 00:21:50;;;;;;;9.60;3.43;;;4.90;99.90;;;;;;5020472;28;20464;-59
2024/01/24 00:24:18;;;;;;;6.50;3.20;;;4.90;99.90;;;;;;5026588;28;20468;-58
2024/01/24 00:26:44;;;;;;;12.13;3.70;;;4.90;99.90;;;;;;5031102;28;20471;-57
2024/01/24 00:29:12;;;;;;;6.40;2.73;;;4.90;99.90;;;;;;5026042;28;20482;-59
2024/01/24 00:31:38;;;;;;;7.47;3.07;;;4.90;99.90;;;;;;5026667;28;20940;-58
2024/01/24 00:34:05;;;;;;;10.33;3.27;;;4.90;99.90;;;;;;5028206;28;20482;-59
2024/01/24 00:36:31;;;;;;;5.53;2.93;;;4.90;99.90;;;;;;5031426;28;20463;-59
2024/01/24 00:38:58;;;;;;;6.73;2.43;;;4.90;99.90;;;;;;5030329;28;20516;-58
2024/01/24 00:41:26;;;;;;;12.20;3.83;;;4.90;99.90;;;;;;5031330;28;20483;-59
2024/01/24 00:43:53;;;;;;;10.30;3.57;;;4.90;99.90;;;;;;5025795;28;20548;-58
2024/01/24 00:46:20;;;;;;;10.93;3.60;;;4.90;99.90;;;;;;5033695;28;20864;-58
2024/01/24 00:48:46;;;;;;;12.53;3.03;;;4.90;99.90;;;;;;5031031;28;20459;-59
2024/01/24 00:51:13;;;;;;;5.80;2.77;;;4.90;99.90;;;;;;5023425;28;20534;-59
2024/01/24 00:53:41;;;;;;;8.20;2.60;;;5.00;99.90;;;;;;5031050;28;20498;-58
2024/01/24 00:56:08;;;;;;;3.93;2.20;;;4.90;99.90;;;;;;5031658;28;20466;-58
2024/01/24 00:58:36;;;;;;;6.27;2.20;;;5.00;99.90;;;;;;5034063;28;20463;-58
2024/01/24 01:01:02;;;;;;;4.50;2.50;;;5.00;99.90;;;;;;5028934;28;20475;-59
2024/01/24 01:03:29;;;;;;;6.97;2.90;;;5.10;99.90;;;;;;5029059;28;20471;-58
2024/01/24 01:05:55;;;;;;;9.33;2.57;;;5.10;99.90;;;;;;5032786;28;20455;-57
2024/01/24 01:08:22;;;;;;;9.63;3.23;;;5.10;99.90;;;;;;5034328;28;20463;-57
2024/01/24 01:10:48;;;;;;;2.93;1.97;;;5.20;99.90;;;;;;5032656;28;20901;-58
2024/01/24 01:13:15;;;;;;;8.30;2.40;;;5.10;99.90;;;;;;5038611;28;20518;-58
2024/01/24 01:15:43;;;;;;;7.40;2.80;;;5.20;99.90;;;;;;5045244;28;20497;-59
2024/01/24 01:18:10;;;;;;;3.80;2.13;;;5.20;99.90;;;;;;5053718;28;20443;-60
2024/01/24 01:20:37;;;;;;;5.77;2.03;;;5.20;99.90;;;;;;5045592;28;20475;-58
2024/01/24 01:23:04;;;;;;;5.80;2.10;;;5.30;99.90;;;;;;5050160;28;20465;-59
2024/01/24 01:25:30;;;;;;;4.77;2.33;;;5.30;99.90;;;;;;5029073;28;20462;-58
2024/01/24 01:27:57;;;;;;;5.40;2.70;;;5.30;99.90;;;;;;5028040;28;20533;-64
2024/01/24 01:30:23;;;;;;;7.97;2.07;;;5.40;99.90;;;;;;5027411;28;20482;-59
2024/01/24 01:32:51;;;;;;;6.57;1.90;;;5.30;99.90;;;;;;5033293;28;20459;-58
2024/01/24 01:35:18;;;;;;;5.67;2.20;;;5.40;99.90;;;;;;5030304;28;20502;-59
2024/01/24 01:37:44;;;;;;;4.10;1.87;;;5.40;99.90;;;;;;5030541;28;20952;-57
2024/01/24 01:40:11;;;;;;;4.17;1.90;;;5.40;99.90;;;;;;5031219;28;20999;-60
2024/01/24 01:42:43;;;;;;;3.50;1.93;;;5.40;99.90;;;;;;5030718;28;20464;-60
2024/01/24 01:45:10;;;;;;;3.70;1.80;;;5.50;99.90;;;;;;5032215;28;20534;-59
2024/01/24 01:47:37;;;;;;;5.73;1.83;;;5.50;99.90;;;;;;5029289;28;20458;-59
2024/01/24 01:50:09;;;;;;;3.00;1.77;;;5.50;99.90;;;;;;5031660;28;20544;-58
2024/01/24 01:52:36;;;;;;;3.30;1.73;;;5.60;99.90;;;;;;5022489;28;20478;-60
2024/01/24 01:55:05;;;;;;;2.60;1.73;;;5.60;99.90;;;;;;5031188;28;20482;-60
2024/01/24 01:57:32;;;;;;;2.93;1.40;;;5.60;99.90;;;;;;5032313;28;20534;-58
2024/01/24 02:00:00;;;;;;;2.23;2.03;;;5.70;99.90;;;;;;5029206;28;20577;-59
2024/01/24 02:02:26;;;;;;;3.13;1.90;;;5.70;99.90;;;;;;5029945;28;20490;-60
2024/01/24 02:04:53;;;;;;;2.53;2.00;;;5.80;99.90;;;;;;5028932;28;20830;-58
2024/01/24 02:07:22;;;;;;;2.33;1.20;;;5.80;99.90;;;;;;5028061;28;20852;-59
2024/01/24 02:09:48;;;;;;;4.23;1.50;;;5.80;99.90;;;;;;5028422;28;20482;-60
2024/01/24 02:12:15;;;;;;;2.83;1.83;;;5.90;99.90;;;;;;5027827;28;20450;-58
2024/01/24 02:14:41;;;;;;;2.50;1.40;;;5.90;99.90;;;;;;5025465;28;20478;-58
2024/01/24 02:17:08;;;;;;;2.20;1.67;;;5.90;99.90;;;;;;5025340;28;20467;-59
2024/01/24 02:19:34;;;;;;;3.80;1.60;;;6.00;99.90;;;;;;5029823;28;20471;-59
2024/01/24 02:22:01;;;;;;;1.93;1.20;;;5.90;99.90;;;;;;5028566;28;20483;-59
2024/01/24 02:24:30;;;;;;;2.87;1.70;;;6.00;99.90;;;;;;5026903;28;21022;-58
2024/01/24 02:26:56;;;;;;;1.80;1.30;;;6.00;1.40;;;;;;5025675;28;20471;-59
2024/01/24 02:29:23;;;;;;;1.73;1.60;;;6.10;99.90;;;;;;5026517;28;20509;-58
2024/01/24 02:31:50;;;;;;;1.47;1.30;;;6.10;99.90;;;;;;5029265;28;20470;-59
2024/01/24 02:34:16;;;;;;;1.93;1.23;;;6.20;99.90;;;;;;5028544;28;20543;-59
2024/01/24 02:36:43;;;;;;;3.13;1.77;;;6.20;99.90;;;;;;5029280;28;20489;-59
2024/01/24 02:39:09;;;;;;;2.70;1.47;;;6.20;99.90;;;;;;5031257;28;20474;-59
2024/01/24 02:41:40;;;;;;;1.30;1.20;;;6.20;99.90;;;;;;5028005;28;20463;-58
2024/01/24 02:44:07;;;;;;;1.23;1.13;;;6.20;99.90;;;;;;5027676;28;20439;-59
2024/01/24 02:46:34;;;;;;;4.23;1.40;;;6.30;99.90;;;;;;5027409;28;20466;-58
2024/01/24 02:49:00;;;;;;;1.50;1.23;;;6.30;99.90;;;;;;5028383;28;20459;-58
2024/01/24 02:51:27;;;;;;;1.20;1.10;;;6.30;99.90;;;;;;5024292;28;20482;-58
2024/01/24 02:53:54;;;;;;;1.97;1.60;;;6.30;99.90;;;;;;5027851;28;20867;-58
2024/01/24 02:56:20;;;;;;;1.13;1.03;;;6.40;99.90;;;;;;5030136;28;20518;-59
2024/01/24 02:58:49;;;;;;;2.40;1.20;;;6.40;99.90;;;;;;5030742;28;20500;-59
2024/01/24 03:01:15;;;;;;;1.23;1.00;;;6.40;99.90;;;;;;5030304;28;20459;-58
2024/01/24 03:03:43;;;;;;;2.13;1.40;;;6.40;99.90;;;;;;5030520;28;20473;-59
2024/01/24 03:06:09;;;;;;;1.37;1.20;;;6.50;99.90;;;;;;5029877;28;20463;-57
2024/01/24 03:08:47;;;;;;;1.47;1.00;;;6.50;99.90;;;;;;5027876;28;20459;-58
2024/01/24 03:11:14;;;;;;;2.70;1.43;;;6.50;99.90;;;;;;5026575;28;20478;-58
2024/01/24 03:13:41;;;;;;;1.20;0.90;;;6.50;99.90;;;;;;5029863;28;20462;-58
2024/01/24 03:16:09;;;;;;;1.43;1.33;;;6.60;99.90;;;;;;5027421;28;20914;-58
2024/01/24 03:18:36;;;;;;;2.67;1.70;;;6.60;99.90;;;;;;5029228;28;20458;-59
2024/01/24 03:21:03;;;;;;;1.57;1.20;;;6.60;99.90;;;;;;5028013;28;20510;-59
2024/01/24 03:23:29;;;;;;;2.57;0.83;;;6.60;99.90;;;;;;5024419;28;20462;-58
2024/01/24 03:25:56;;;;;;;2.87;1.20;;;6.60;99.90;;;;;;5029880;28;20508;-59
2024/01/24 03:28:22;;;;;;;3.10;1.50;;;6.70;99.90;;;;;;5028863;28;20454;-59
2024/01/24 03:30:49;;;;;;;1.30;1.17;;;6.80;99.90;;;;;;5028572;28;20510;-57
2024/01/24 03:33:17;;;;;;;2.10;1.60;;;6.80;99.90;;;;;;5029913;28;20501;-58
2024/01/24 03:35:43;;;;;;;1.43;1.03;;;6.90;99.90;;;;;;5031790;28;20564;-59
2024/01/24 03:38:10;;;;;;;1.60;1.10;;;6.90;99.90;;;;;;5031483;28;20516;-58
2024/01/24 03:40:37;;;;;;;1.63;1.20;;;6.90;99.90;;;;;;5030684;28;20482;-59
2024/01/24 03:43:03;;;;;;;2.27;1.23;;;7.00;99.90;;;;;;5035381;28;20952;-59
2024/01/24 03:45:30;;;;;;;1.40;1.20;;;7.00;99.90;;;;;;5034352;28;20466;-58
2024/01/24 03:47:56;;;;;;;1.53;1.10;;;7.10;99.90;;;;;;5033983;28;20462;-59
2024/01/24 03:50:24;;;;;;;1.40;1.13;;;7.10;99.90;;;;;;5029957;28;20482;-59
2024/01/24 03:52:51;;;;;;;2.10;1.07;;;7.20;99.90;;;;;;5030842;28;20492;-58
2024/01/24 03:55:17;;;;;;;1.20;1.10;;;7.20;99.90;;;;;;5031407;28;20478;-59
2024/01/24 03:57:44;;;;;;;2.80;1.17;;;7.30;99.90;;;;;;5025420;28;20518;-58
2024/01/24 04:00:12;;;;;;;1.23;1.13;;;7.30;99.90;;;;;;5028582;28;20506;-59
2024/01/24 04:02:38;;;;;;;4.70;1.03;;;7.20;99.90;;;;;;5033802;28;20517;-59
2024/01/24 04:05:06;;;;;;;2.90;1.23;;;7.30;99.90;;;;;;5034445;28;20467;-59
2024/01/24 04:07:34;;;;;;;2.67;1.47;;;7.40;99.90;;;;;;5032700;28;20990;-59
2024/01/24 04:10:01;;;;;;;0.90;0.80;;;7.40;99.90;;;;;;5033763;28;20572;-58
2024/01/24 04:12:28;;;;;;;1.33;1.20;;;7.40;99.90;;;;;;5033457;28;20443;-59
2024/01/24 04:14:54;;;;;;;0.70;0.70;;;7.50;99.90;;;;;;5034861;28;21010;-59
2024/01/24 04:17:21;;;;;;;3.03;1.13;;;7.50;99.90;;;;;;5027245;28;20520;-59
2024/01/24 04:19:48;;;;;;;1.00;0.90;;;7.50;99.90;;;;;;5032528;28;20506;-59
2024/01/24 04:22:15;;;;;;;3.27;1.43;;;7.60;99.90;;;;;;5029940;28;20463;-59
2024/01/24 04:24:44;;;;;;;5.30;1.57;;;7.70;99.90;;;;;;5024692;28;20458;-59
2024/01/24 04:27:10;;;;;;;1.10;1.00;;;7.70;99.90;;;;;;5029560;28;20455;-59
2024/01/24 04:29:37;;;;;;;2.40;1.10;;;7.70;99.90;;;;;;5032050;28;21079;-59
2024/01/24 04:32:05;;;;;;;1.70;1.27;;;7.70;99.90;;;;;;5028279;28;20475;-59
2024/01/24 04:34:32;;;;;;;2.03;1.30;;;7.80;99.90;;;;;;5033532;28;20459;-59
2024/01/24 04:36:58;;;;;;;0.80;0.80;;;7.90;99.90;;;;;;5033675;28;20886;-59
2024/01/24 04:39:25;;;;;;;1.47;1.00;;;8.00;99.90;;;;;;5032385;28;20532;-59
2024/01/24 04:41:53;;;;;;;1.07;0.97;;;8.10;99.90;;;;;;5030831;28;20444;-58
2024/01/24 04:44:20;;;;;;;3.03;1.30;;;8.10;99.90;;;;;;5025215;28;20967;-59
2024/01/24 04:46:46;;;;;;;1.37;0.93;;;8.10;99.90;;;;;;5031771;28;20470;-54
2024/01/24 04:49:13;;;;;;;1.27;1.17;;;8.20;99.90;;;;;;5033848;28;20987;-58
2024/01/24 04:51:40;;;;;;;0.80;0.80;;;8.20;99.90;;;;;;5029543;28;20459;-58
2024/01/24 04:54:07;;;;;;;1.27;1.00;;;8.20;99.90;;;;;;5031876;28;20463;-58
2024/01/24 04:56:34;;;;;;;1.20;1.00;;;8.30;99.90;;;;;;5028496;28;20514;-58
2024/01/24 04:59:02;;;;;;;2.60;1.30;;;8.30;99.90;;;;;;5031503;28;20484;-58
2024/01/24 05:01:29;;;;;;;1.40;0.90;;;8.30;99.90;;;;;;5030054;28;20540;-59
2024/01/24 05:03:55;;;;;;;1.93;1.30;;;8.40;99.90;;;;;;5024261;28;20459;-58
2024/01/24 05:06:22;;;;;;;1.00;0.80;;;8.40;99.90;;;;;;5029971;28;20455;-57
2024/01/24 05:08:48;;;;;;;2.57;1.27;;;8.40;99.90;;;;;;5029850;28;20968;-58
2024/01/24 05:11:15;;;;;;;3.67;1.03;;;8.50;99.90;;;;;;5031721;28;20490;-58
2024/01/24 05:13:42;;;;;;;1.90;0.90;;;8.50;99.90;;;;;;5032667;28;20525;-58
2024/01/24 05:16:10;;;;;;;5.40;1.33;;;8.50;99.90;;;;;;5028919;28;20662;-58
2024/01/24 05:18:37;;;;;;;3.37;1.50;;;8.50;99.90;;;;;;5030716;28;20446;-59
2024/01/24 05:21:04;;;;;;;2.40;1.43;;;8.50;99.90;;;;;;5024890;28;20500;-58
2024/01/24 05:23:31;;;;;;;2.50;0.93;;;8.60;99.90;;;;;;5028156;28;20941;-55
2024/01/24 05:25:57;;;;;;;2.00;1.20;;;8.50;99.90;;;;;;5031621;28;20986;-57
2024/01/24 05:28:24;;;;;;;1.20;1.10;;;8.60;99.90;;;;;;5031299;28;21038;-55
2024/01/24 05:30:50;;;;;;;1.27;1.17;;;8.50;99.90;;;;;;5030068;28;20478;-55
2024/01/24 05:33:18;;;;;;;3.77;3.40;;;8.50;99.90;;;;;;5030077;28;20469;-58
2024/01/24 05:35:45;;;;;;;5.57;1.10;;;8.50;99.90;;;;;;5022143;28;20487;-58
2024/01/24 05:38:12;;;;;;;1.80;1.50;;;8.50;99.90;;;;;;5027291;28;20465;-58
2024/01/24 05:40:38;;;;;;;3.53;1.70;;;8.50;99.90;;;;;;5030357;28;20486;-58
2024/01/24 05:43:05;;;;;;;1.63;1.20;;;8.60;99.90;;;;;;5027897;28;20485;-59
2024/01/24 05:45:32;;;;;;;1.83;1.63;;;8.60;99.90;;;;;;5031540;28;20471;-58
2024/01/24 05:47:58;;;;;;;2.67;1.40;;;8.60;99.90;;;;;;5030092;28;20516;-59
2024/01/24 05:50:26;;;;;;;4.30;1.50;;;8.60;99.90;;;;;;5029643;28;20525;-58
2024/01/24 05:52:53;;;;;;;4.30;1.73;;;8.60;99.90;;;;;;5026960;28;20495;-59
2024/01/24 05:55:20;;;;;;;4.53;2.10;;;8.60;99.90;;;;;;5031139;28;20467;-54
2024/01/24 05:57:47;;;;;;;1.93;1.20;;;8.70;99.90;;;;;;5032237;28;20489;-55
2024/01/24 06:00:14;;;;;;;2.30;1.37;;;8.70;99.90;;;;;;5029316;28;20557;-55
2024/01/24 06:02:41;;;;;;;1.07;1.00;;;8.70;99.90;;;;;;5031095;28;20979;-56
2024/01/24 06:05:08;;;;;;;1.57;1.10;;;8.70;99.90;;;;;;5031727;28;20847;-55
2024/01/24 06:07:37;;;;;;;5.03;1.20;;;8.70;99.90;;;;;;5026407;28;20458;-56
2024/01/24 06:10:04;;;;;;;1.50;1.40;;;8.80;99.90;;;;;;5025926;28;20480;-55
2024/01/24 06:12:30;;;;;;;2.60;1.43;;;8.80;99.90;;;;;;5031840;28;20819;-58
2024/01/24 06:14:57;;;;;;;3.83;1.57;;;8.80;99.90;;;;;;5031695;28;20816;-61
2024/01/24 06:17:23;;;;;;;2.27;1.97;;;8.90;99.90;;;;;;5024160;28;21025;-59
2024/01/24 06:19:51;;;;;;;2.03;1.80;;;8.80;99.90;;;;;;5022196;28;20548;-59
2024/01/24 06:22:18;;;;;;;1.90;1.70;;;8.90;99.90;;;;;;5026420;28;20516;-58
2024/01/24 06:24:46;;;;;;;3.23;1.87;;;8.90;99.90;;;;;;5024437;28;20459;-59
2024/01/24 06:27:13;;;;;;;1.57;1.50;;;8.90;99.90;;;;;;5030697;28;20458;-58
2024/01/24 06:29:39;;;;;;;1.70;1.20;;;8.80;99.90;;;;;;5031570;28;20502;-58
2024/01/24 06:32:07;;;;;;;2.50;1.70;;;8.80;99.90;;;;;;5028109;28;20466;-58
2024/01/24 06:34:33;;;;;;;1.40;1.30;;;8.80;99.90;;;;;;5023700;28;20517;-58
2024/01/24 06:37:00;;;;;;;4.50;1.60;;;8.80;99.90;;;;;;5027813;28;20573;-59
2024/01/24 06:39:27;;;;;;;9.33;1.43;;;8.80;99.90;;;;;;5020928;28;20536;-58
2024/01/24 06:41:55;;;;;;;1.30;0.90;;;8.80;99.90;;;;;;5026835;28;20462;-58
2024/01/24 06:44:21;;;;;;;1.60;0.80;;;9.00;99.90;;;;;;5025429;28;20622;-58
2024/01/24 06:46:48;;;;;;;1.47;0.90;;;9.20;99.90;;;;;;5041545;28;20454;-59
2024/01/24 06:49:14;;;;;;;3.37;0.93;;;9.10;99.90;;;;;;5047846;28;20502;-58
2024/01/24 06:51:41;;;;;;;2.13;1.10;;;9.20;99.90;;;;;;5053441;28;20469;-60
2024/01/24 06:54:08;;;;;;;1.03;0.90;;;9.00;99.90;;;;;;5050669;28;20459;-58
2024/01/24 06:56:35;;;;;;;3.13;1.40;;;9.00;99.90;;;;;;5040437;28;20487;-59
2024/01/24 06:59:03;;;;;;;4.40;1.27;;;8.90;99.90;;;;;;5031343;28;20459;-59
2024/01/24 07:01:29;;;;;;;3.33;1.63;;;8.80;99.90;;;;;;5022254;28;20469;-58
2024/01/24 07:03:56;;;;;;;3.67;1.30;;;8.90;99.90;;;;;;5025557;28;20549;-60
2024/01/24 07:06:23;;;;;;;4.43;1.90;;;8.80;99.90;;;;;;5026972;28;20535;-58
2024/01/24 07:08:49;;;;;;;4.17;1.40;;;8.80;99.90;;;;;;5024984;28;20459;-59
2024/01/24 07:11:17;;;;;;;3.47;1.70;;;8.80;99.90;;;;;;5028307;28;20463;-59
2024/01/24 07:13:44;;;;;;;3.10;1.57;;;8.80;99.90;;;;;;5026086;28;20458;-59
2024/01/24 07:16:11;;;;;;;8.10;2.23;;;8.80;99.90;;;;;;5025375;28;20503;-58
2024/01/24 07:18:38;;;;;;;9.47;1.90;;;8.80;99.90;;;;;;5024863;28;20509;-58
2024/01/24 07:21:06;;;;;;;5.63;2.03;;;8.80;99.90;;;;;;5024669;28;20553;-58
2024/01/24 07:23:33;;;;;;;8.03;2.20;;;8.80;99.90;;;;;;5025539;28;20455;-59
2024/01/24 07:25:59;;;;;;;5.70;2.17;;;8.70;99.90;;;;;;5020381;28;20528;-59
2024/01/24 07:28:29;;;;;;;7.97;2.30;;;8.70;99.90;;;;;;5025152;28;20494;-58
2024/01/24 07:30:55;;;;;;;5.27;1.63;;;8.70;99.90;;;;;;5025199;28;20999;-58
2024/01/24 07:33:23;;;;;;;9.07;2.60;;;8.70;99.90;;;;;;5029573;28;20451;-58
2024/01/24 07:35:50;;;;;;;7.07;2.30;;;8.70;99.90;;;;;;5022972;28;20806;-59
2024/01/24 07:38:18;;;;;;;16.23;3.30;;;8.70;99.90;;;;;;5026195;28;20518;-59
2024/01/24 07:40:45;;;;;;;8.33;3.47;;;8.80;99.90;;;;;;5023612;28;20474;-58
2024/01/24 07:43:11;;;;;;;18.57;3.70;;;8.90;99.90;;;;;;5025486;28;20494;-57
2024/01/24 07:45:38;;;;;;;13.80;3.47;;;8.90;99.90;;;;;;5028613;28;20451;-58
2024/01/24 07:48:06;;;;;;;9.40;3.27;;;8.90;99.90;;;;;;5024082;28;20439;-60
2024/01/24 07:50:34;;;;;;;14.70;3.50;;;9.00;99.90;;;;;;5023210;28;20503;-58
2024/01/24 07:53:00;;;;;;;25.17;4.40;;;9.20;99.90;;;;;;5023984;28;20961;-57
2024/01/24 07:55:27;;;;;;;15.27;4.40;;;9.30;22.90;;;;;;5024890;28;20454;-58
2024/01/24 07:57:53;;;;;;;16.00;3.80;;;9.30;32.70;;;;;;5025847;28;20536;-58
2024/01/24 08:00:20;;;;;;;18.60;3.43;;;9.40;20.60;;;;;;5025501;28;21057;-57
2024/01/24 08:02:47;;;;;;;13.40;4.10;;;9.60;74.00;;;;;;5020339;28;20462;-59
2024/01/24 08:05:14;;;;;;;18.90;4.50;;;9.60;64.70;;;;;;5025331;28;20541;-58
2024/01/24 08:07:42;;;;;;;17.00;3.60;;;9.70;87.60;;;;;;5022490;28;20840;-57
2024/01/24 08:10:11;;;;;;;7.73;2.50;;;9.80;93.60;;;;;;5023295;28;20980;-58
2024/01/24 08:12:38;;;;;;;23.10;4.40;;;9.80;68.90;;;;;;5022457;28;20466;-58
2024/01/24 08:15:05;;;;;;;13.93;3.87;;;9.90;99.90;;;;;;5022793;28;20543;-58
2024/01/24 08:17:32;;;;;;;11.73;3.40;;;10.10;67.70;;;;;;5027972;28;21074;-59
2024/01/24 08:19:59;;;;;;;17.20;5.50;;;10.10;86.00;;;;;;5027605;28;21062;-59
2024/01/24 08:22:28;;;;;;;13.70;3.80;;;10.00;92.90;;;;;;5029635;28;20447;-59
2024/01/24 08:24:56;;;;;;;12.60;3.17;;;10.00;92.50;;;;;;5028803;28;20537;-59
2024/01/24 08:27:23;;;;;;;16.57;4.13;;;10.10;99.80;;;;;;5031086;28;21091;-59
2024/01/24 08:29:49;;;;;;;13.20;3.20;;;10.00;68.60;;;;;;5027785;28;20514;-58
2024/01/24 08:32:16;;;;;;;19.13;3.50;;;9.60;89.20;;;;;;5031417;28;20516;-57
2024/01/24 08:34:43;;;;;;;14.67;3.37;;;9.30;68.00;;;;;;5041330;28;20459;-59
2024/01/24 08:37:10;;;;;;;13.67;3.07;;;9.00;73.70;;;;;;5044429;28;20486;-59
2024/01/24 08:39:37;;;;;;;11.93;2.97;;;8.80;86.70;;;;;;5040865;28;21396;-59
2024/01/24 08:42:05;;;;;;;5.47;2.27;;;8.80;99.90;;;;;;5046693;28;20489;-58
2024/01/24 08:44:32;;;;;;;7.83;2.40;;;8.70;86.70;;;;;;5042487;28;20462;-58
2024/01/24 08:46:58;;;;;;;7.80;2.23;;;8.70;99.90;;;;;;5033183;28;20459;-59
2024/01/24 08:49:25;;;;;;;11.07;2.63;;;8.80;99.90;;;;;;5030881;28;20540;-58
2024/01/24 08:51:52;;;;;;;10.10;3.20;;;8.90;99.90;;;;;;5027109;28;20722;-58
2024/01/24 08:54:19;;;;;;;5.47;3.00;;;9.00;99.90;;;;;;5029184;28;20873;-61
2024/01/24 08:56:45;;;;;;;16.10;2.90;;;9.00;99.90;;;;;;5028090;28;20495;-59
2024/01/24 08:59:13;;;;;;;6.00;2.70;;;9.00;99.90;;;;;;5029649;28;20480;-59
2024/01/24 09:01:41;;;;;;;14.30;3.70;;;9.00;99.90;;;;;;5027129;28;20873;-59
2024/01/24 09:04:07;;;;;;;8.10;2.67;;;9.00;99.90;;;;;;5026920;28;20465;-60
2024/01/24 09:06:34;;;;;;;9.93;3.27;;;9.00;99.90;;;;;;5028303;28;20491;-58
2024/01/24 09:09:00;;;;;;;12.33;2.83;;;9.00;99.90;;;;;;5028737;28;20536;-59
2024/01/24 09:11:27;;;;;;;13.90;3.47;;;9.00;99.90;;;;;;5029613;28;20821;-59
2024/01/24 09:13:53;;;;;;;12.03;3.90;;;9.00;99.90;;;;;;5027139;28;20533;-57
2024/01/24 09:16:21;;;;;;;16.93;3.50;;;9.10;99.90;;;;;;5028493;28;20486;-60
2024/01/24 09:18:48;;;;;;;8.90;3.00;;;9.20;99.90;;;;;;5024363;28;20455;-59
2024/01/24 09:21:14;;;;;;;11.30;3.03;;;9.20;99.90;;;;;;5024976;28;20567;-58
2024/01/24 09:23:41;;;;;;;14.40;3.80;;;9.30;99.90;;;;;;5023403;28;20494;-59
2024/01/24 09:26:08;;;;;;;13.37;4.00;;;9.30;99.90;;;;;;5024679;28;20510;-58
2024/01/24 09:28:34;;;;;;;17.87;4.10;;;9.30;99.90;;;;;;5026607;28;20454;-59
2024/01/24 09:31:01;;;;;;;6.60;3.13;;;9.50;99.90;;;;;;5026348;28;20495;-60
2024/01/24 09:33:29;;;;;;;13.47;3.60;;;9.70;99.90;;;;;;5025255;28;20455;-58
2024/01/24 09:35:55;;;;;;;12.03;3.97;;;9.60;99.90;;;;;;5028228;28;20466;-60
2024/01/24 09:38:22;;;;;;;16.63;4.80;;;9.50;99.90;;;;;;5027927;28;20576;-58
2024/01/24 09:40:50;;;;;;;10.67;3.43;;;9.50;99.90;;;;;;5029208;28;20474;-58
2024/01/24 09:43:18;;;;;;;11.77;3.83;;;9.50;99.90;;;;;;5030428;28;20478;-58
2024/01/24 09:45:45;;;;;;;16.67;4.80;;;9.40;99.90;;;;;;5029179;28;20494;-58
2024/01/24 09:48:12;;;;;;;15.40;4.00;;;9.40;99.90;;;;;;5043044;28;20509;-58
2024/01/24 09:50:41;;;;;;;18.60;5.13;;;9.40;99.90;;;;;;5047022;28;20479;-59
2024/01/24 09:53:09;;;;;;;10.67;3.47;;;9.70;99.90;;;;;;5049356;28;20494;-58
2024/01/24 09:55:37;;;;;;;12.07;3.87;;;10.00;98.00;;;;;;5048476;28;20463;-59
2024/01/24 09:58:04;;;;;;;12.93;3.60;;;10.20;26.00;;;;;;5049000;28;20485;-59
2024/01/24 10:00:31;;;;;;;10.97;3.70;;;10.20;24.40;;;;;;5044298;28;20482;-58
2024/01/24 10:02:59;;;;;;;21.90;4.80;;;10.30;33.50;;;;;;5028366;28;20987;-59
2024/01/24 10:05:27;;;;;;;10.20;3.73;;;10.20;24.10;;;;;;5028630;28;20524;-59
2024/01/24 10:07:55;;;;;;;24.67;4.47;;;10.20;27.60;;;;;;5029957;28;20450;-59
2024/01/24 10:10:22;;;;;;;18.20;4.50;;;10.20;24.00;;;;;;5024769;28;20506;-59
2024/01/24 10:12:49;;;;;;;15.80;4.57;;;10.30;21.80;;;;;;5027483;28;20463;-58
2024/01/24 10:15:15;;;;;;;21.40;4.73;;;10.20;24.80;;;;;;5027675;28;20459;-61
2024/01/24 10:17:43;;;;;;;12.27;4.13;;;10.20;27.30;;;;;;5025179;28;20586;-59
2024/01/24 10:20:11;;;;;;;16.97;4.77;;;10.40;34.80;;;;;;5032651;28;20899;-59
2024/01/24 10:22:38;;;;;;;19.80;6.10;;;10.40;37.30;;;;;;5024545;28;20476;-59
2024/01/24 10:25:09;;;;;;;20.37;4.90;;;10.40;44.00;;;;;;5028688;28;20463;-59
2024/01/24 10:27:37;;;;;;;17.93;5.07;;;10.50;56.00;;;;;;5028758;28;20458;-59
2024/01/24 10:30:09;;;;;;;30.77;5.27;;;10.50;51.40;;;;;;5030217;28;20490;-60
2024/01/24 10:32:37;;;;;;;22.07;5.50;;;10.50;52.50;;;;;;5024587;28;20463;-60
2024/01/24 10:35:04;;;;;;;20.33;5.07;;;10.40;54.60;;;;;;5028433;28;20513;-60
2024/01/24 10:37:32;;;;;;;22.13;4.73;;;10.50;64.40;;;;;;5026716;28;20487;-56
2024/01/24 10:40:03;;;;;;;19.60;4.90;;;10.60;71.80;;;;;;5027202;28;20479;-55
2024/01/24 10:42:36;;;;;;;16.07;4.63;;;10.70;80.30;;;;;;5027654;28;20471;-56
2024/01/24 10:45:05;;;;;;;17.63;5.20;;;10.60;88.30;;;;;;5033968;28;20451;-60
2024/01/24 10:47:32;;;;;;;17.53;4.80;;;10.70;85.90;;;;;;5026566;28;20531;-56
2024/01/24 10:50:03;;;;;;;22.07;4.60;;;10.70;89.40;;;;;;5031992;28;20533;-57
2024/01/24 10:52:30;;;;;;;18.60;5.27;;;10.70;90.90;;;;;;5022959;28;20458;-58
2024/01/24 10:55:01;;;;;;;18.23;4.50;;;10.80;93.40;;;;;;5026912;28;20585;-58
2024/01/24 10:57:28;;;;;;;30.00;5.97;;;10.80;97.60;;;;;;5030582;28;20486;-57
2024/01/24 10:59:57;;;;;;;19.47;5.00;;;10.80;99.50;;;;;;5027570;28;20486;-57
2024/01/24 11:02:24;;;;;;;19.93;4.87;;;10.80;99.90;;;;;;5031010;28;20470;-56
2024/01/24 11:04:52;;;;;;;20.17;4.70;;;10.80;98.80;;;;;;5027984;28;20486;-56
2024/01/24 11:07:26;;;;;;;12.13;4.20;;;10.90;99.90;;;;;;5019845;28;20455;-55
2024/01/24 11:10:03;;;;;;;17.27;5.53;;;10.90;99.90;;;;;;5025533;28;20528;-57
2024/01/24 11:12:30;;;;;;;14.63;4.40;;;10.90;99.90;;;;;;5027778;28;20454;-58
2024/01/24 11:15:05;;;;;;;13.50;3.83;;;10.80;99.90;;;;;;5022485;28;20463;-57
2024/01/24 11:17:33;;;;;;;27.43;5.40;;;10.90;99.90;;;;;;5022241;28;20513;-56
2024/01/24 11:19:59;;;;;;;11.63;4.63;;;11.00;99.90;;;;;;5025112;28;20576;-56
2024/01/24 11:22:26;;;;;;;21.83;5.47;;;11.10;99.90;;;;;;5027259;28;20861;-57
2024/01/24 11:24:53;;;;;;;22.93;5.10;;;11.00;99.90;;;;;;5024635;28;21004;-59
2024/01/24 11:27:30;;;;;;;17.73;4.27;;;11.10;99.90;;;;;;5020070;28;20454;-59
2024/01/24 11:29:57;;;;;;;10.43;3.93;;;11.10;99.90;;;;;;5025023;28;20563;-59
2024/01/24 11:33:00;;;;;;;23.37;5.20;;;11.20;99.90;;;;;;5029853;28;20887;-59
2024/01/24 11:35:27;;;;;;;13.20;4.20;;;11.30;99.90;;;;;;5029754;28;20493;-58
2024/01/24 11:37:54;;;;;;;28.80;4.77;;;11.20;99.90;;;;;;5029006;28;21003;-58
2024/01/24 11:40:23;;;;;;;15.60;4.30;;;11.10;99.90;;;;;;5025003;28;20475;-58
2024/01/24 11:42:54;;;;;;;17.50;4.53;;;11.10;99.90;;;;;;5029739;28;20454;-59
2024/01/24 11:45:22;;;;;;;26.70;5.10;;;11.20;99.90;;;;;;5035389;28;20462;-58
2024/01/24 11:47:49;;;;;;;16.33;4.33;;;11.10;99.90;;;;;;5048183;28;20455;-58
2024/01/24 11:50:17;;;;;;;18.03;4.60;;;11.50;99.90;;;;;;5042190;28;20482;-63
2024/01/24 11:52:45;;;;;;;23.63;4.33;;;11.40;99.90;;;;;;5043217;28;20447;-59
2024/01/24 11:55:12;;;;;;;12.83;4.20;;;11.50;99.90;;;;;;5042392;28;20443;-60
2024/01/24 11:57:39;;;;;;;19.43;4.90;;;11.20;99.90;;;;;;5035007;28;20580;-60
2024/01/24 12:00:07;;;;;;;16.87;4.40;;;11.40;99.90;;;;;;5026705;28;21054;-59
2024/01/24 12:02:34;;;;;;;16.57;4.90;;;11.30;99.90;;;;;;5030367;28;20505;-59
2024/01/24 12:05:01;;;;;;;15.77;3.90;;;11.30;99.90;;;;;;5021369;28;20544;-58
2024/01/24 12:07:29;;;;;;;16.60;4.70;;;11.20;99.90;;;;;;5031638;28;20507;-58
2024/01/24 12:09:55;;;;;;;18.17;4.83;;;11.30;99.90;;;;;;5034875;28;20458;-58
2024/01/24 12:12:23;;;;;;;21.60;5.40;;;11.10;99.90;;;;;;5033996;28;20454;-58
2024/01/24 12:14:50;;;;;;;14.77;4.13;;;11.00;99.90;;;;;;5029593;28;20549;-58
2024/01/24 12:17:17;;;;;;;20.40;4.70;;;11.10;99.90;;;;;;5025661;28;20466;-59
2024/01/24 12:19:44;;;;;;;19.00;4.63;;;11.10;99.90;;;;;;5021313;28;20545;-60
2024/01/24 12:22:10;;;;;;;20.57;5.50;;;11.10;99.90;;;;;;5024059;28;20457;-58
2024/01/24 12:24:40;;;;;;;16.50;4.30;;;11.10;99.90;;;;;;5030285;28;20469;-57
2024/01/24 12:27:08;;;;;;;19.07;4.93;;;11.00;99.90;;;;;;5034223;28;20862;-56
2024/01/24 12:29:34;;;;;;;18.50;3.20;;;11.00;99.90;;;;;;5034398;28;20454;-57
2024/01/24 12:32:02;;;;;;;19.47;5.07;;;10.90;99.90;;;;;;5033890;28;20496;-57
2024/01/24 12:34:29;;;;;;;21.63;4.30;;;10.90;99.90;;;;;;5034039;28;20534;-57
2024/01/24 12:36:57;;;;;;;15.93;5.03;;;10.90;99.90;;;;;;5028177;28;20461;-56
2024/01/24 12:39:28;;;;;;;21.47;4.90;;;11.00;99.90;;;;;;5033867;28;20506;-57
2024/01/24 12:41:56;;;;;;;26.13;5.63;;;11.00;99.90;;;;;;5032220;28;20863;-56
2024/01/24 12:44:22;;;;;;;18.13;4.33;;;11.00;99.90;;;;;;5027510;28;20471;-57
2024/01/24 12:46:57;;;;;;;15.30;3.77;;;11.00;99.90;;;;;;5033946;28;20443;-58
2024/01/24 12:49:25;;;;;;;13.67;4.03;;;10.90;99.90;;;;;;5033272;28;20893;-57
2024/01/24 12:51:53;;;;;;;16.67;4.90;;;11.00;99.90;;;;;;5033107;28;20999;-57